Farden, Minnesota
Current Conditions -  °F | °C
As of 2:15 AM on Thursday 29 Jan 2015 (Local Time) from KY49 Reporting Station
Haze Haze  
Wind Chill: 17°   Ceiling: 500
Heat Index: 27°   Visibility: 5mi
Dew Point: 25°   Wind: 10mph
Humidity: 94%   Direction: 300°WNW
Pressure: 29.97"   Gusts: 17mph
Location:  47.3012°N, 94.5426°W
Report Text: KY49 290815Z AUTO 30009G15KT 5SM BR OVC005 M03/M04 A2997 RMK AO2 T10301038
Loading
Personal Weather Stations






























Interactive Weather Map New forecast layout! Learn more

10-Day Weather Forecast

Advertisements
Track Severe Weather on mobile